Terminal Aerodrome Forecast
Issued by NWS

Home | Current Version | Previous Version | Text Only | Print | Product List | Glossary On
Versions: 1 2 3 4 5 6 7 8 9 10 11 12 13 14 15 16 17 18 19
000
FTUS46 KLOX 220500
TAFWJF
TAF
KWJF 220526Z 2206/2306 28014KT P6SM SKC
     FM221200 VRB05KT P6SM SKC
     FM222000 29014KT P6SM SKC
     FM230500 30008KT P6SM SKC=

USA.gov is the U.S. government's official web portal to all federal, state and local government web resources and services.